Time;durP1;ratioP1;P1;durP2;ratioP2;P2;SDS_P1;SDS_P2;PMS_P1;PMS_P2;Temp;Humidity;BMP_temperature;BMP_pressure;BME280_temperature;BME280_humidity;BME280_pressure;Samples;Min_cycle;Max_cycle;Signal;HPM_P1;HPM_P2
2024/01/29 00:01:43;;;;;;;16.35;11.90;;;14.70;70.10;;;;;;5016830;28;20040;-79
2024/01/29 00:04:09;;;;;;;15.95;11.18;;;14.70;70.10;;;;;;5035603;28;20060;-79
2024/01/29 00:06:35;;;;;;;18.30;13.07;;;14.70;70.20;;;;;;5035477;28;20040;-78
2024/01/29 00:09:06;;;;;;;15.93;12.07;;;14.60;70.10;;;;;;5019996;28;20045;-79
2024/01/29 00:11:34;;;;;;;17.38;12.43;;;14.60;70.20;;;;;;5022827;28;20239;-79
2024/01/29 00:14:01;;;;;;;18.80;12.07;;;14.60;70.20;;;;;;5037833;28;20127;-78
2024/01/29 00:16:27;;;;;;;20.33;13.73;;;14.60;70.20;;;;;;5037421;28;20861;-79
2024/01/29 00:18:56;;;;;;;17.38;10.90;;;14.60;70.20;;;;;;5021762;28;20078;-78
2024/01/29 00:21:23;;;;;;;14.25;11.73;;;14.60;70.30;;;;;;5038306;28;20021;-78
2024/01/29 00:23:49;;;;;;;18.02;11.50;;;14.60;70.30;;;;;;5036277;28;20260;-78
2024/01/29 00:26:16;;;;;;;19.67;13.90;;;14.60;70.40;;;;;;5039464;28;20051;-79
2024/01/29 00:28:42;;;;;;;18.45;13.00;;;14.50;70.30;;;;;;5026843;28;20304;-78
2024/01/29 00:31:09;;;;;;;17.77;12.07;;;14.50;70.30;;;;;;5034468;28;20040;-78
2024/01/29 00:33:36;;;;;;;16.92;12.45;;;14.50;70.30;;;;;;5033909;28;20053;-79
2024/01/29 00:36:03;;;;;;;16.70;11.95;;;14.50;70.40;;;;;;5005659;28;20032;-79
2024/01/29 00:38:32;;;;;;;20.55;12.20;;;14.50;70.40;;;;;;5020897;28;20025;-79
2024/01/29 00:40:58;;;;;;;15.95;11.18;;;14.50;70.40;;;;;;5019231;28;20040;-79
2024/01/29 00:43:24;;;;;;;16.25;12.13;;;14.50;70.50;;;;;;5037960;28;20037;-78
2024/01/29 00:45:50;;;;;;;13.70;12.00;;;14.50;70.50;;;;;;5011527;28;20037;-79
2024/01/29 00:48:16;;;;;;;17.52;12.13;;;14.50;70.60;;;;;;5021328;28;20062;-79
2024/01/29 00:50:42;;;;;;;16.27;11.20;;;14.50;70.60;;;;;;5040997;28;20788;-78
2024/01/29 00:53:08;;;;;;;17.10;11.38;;;14.50;70.70;;;;;;5020311;28;20116;-79
2024/01/29 00:55:34;;;;;;;17.75;11.45;;;14.50;70.70;;;;;;5031241;28;20017;-79
2024/01/29 00:58:03;;;;;;;17.15;12.05;;;14.50;70.70;;;;;;5003451;28;20095;-78
2024/01/29 01:00:30;;;;;;;16.40;11.68;;;14.50;70.70;;;;;;5034510;28;20488;-79
2024/01/29 01:02:57;;;;;;;17.50;12.20;;;14.50;70.80;;;;;;5020740;28;20492;-78
2024/01/29 01:05:24;;;;;;;17.73;11.10;;;14.50;70.80;;;;;;5021298;28;20025;-77
2024/01/29 01:07:50;;;;;;;18.08;11.50;;;14.50;70.80;;;;;;5036168;28;20086;-79
2024/01/29 01:10:16;;;;;;;13.95;11.27;;;14.50;70.90;;;;;;5021445;28;20025;-78
2024/01/29 01:12:42;;;;;;;13.23;10.07;;;14.50;70.90;;;;;;5038607;28;20036;-77
2024/01/29 01:15:09;;;;;;;17.90;11.02;;;14.50;70.90;;;;;;5039968;28;20025;-76
2024/01/29 01:17:34;;;;;;;16.77;11.68;;;14.50;70.90;;;;;;5018766;28;20403;-77
2024/01/29 01:20:02;;;;;;;15.13;11.20;;;14.40;70.80;;;;;;5037675;28;20043;-77
2024/01/29 01:22:29;;;;;;;18.55;10.98;;;14.40;70.80;;;;;;5020444;28;20048;-77
2024/01/29 01:24:57;;;;;;;15.98;10.77;;;14.50;71.10;;;;;;5020656;28;20033;-79
2024/01/29 01:27:24;;;;;;;14.32;10.73;;;14.50;71.00;;;;;;5036381;28;20060;-78
2024/01/29 01:29:50;;;;;;;17.65;11.77;;;14.50;71.10;;;;;;5039765;28;20041;-78
2024/01/29 01:32:16;;;;;;;15.63;11.35;;;14.40;70.90;;;;;;5035429;28;20110;-79
2024/01/29 01:34:42;;;;;;;16.45;11.82;;;14.40;70.90;;;;;;5039762;28;20646;-78
2024/01/29 01:37:08;;;;;;;15.70;11.48;;;14.40;70.90;;;;;;5038663;28;20117;-78
2024/01/29 01:39:34;;;;;;;14.82;10.60;;;14.40;71.00;;;;;;5021083;28;20043;-78
2024/01/29 01:42:01;;;;;;;17.10;11.82;;;14.40;71.00;;;;;;5037995;28;20045;-79
2024/01/29 01:44:27;;;;;;;16.45;11.82;;;14.40;71.00;;;;;;5037168;28;20029;-79
2024/01/29 01:46:53;;;;;;;18.08;13.85;;;14.40;71.00;;;;;;5004411;28;20088;-77
2024/01/29 01:49:19;;;;;;;14.73;11.43;;;14.40;71.00;;;;;;5038855;28;20074;-78
2024/01/29 01:51:46;;;;;;;16.75;11.25;;;14.40;71.00;;;;;;5023871;28;20453;-79
2024/01/29 01:54:13;;;;;;;18.70;11.23;;;14.40;71.10;;;;;;5030765;28;20127;-80
2024/01/29 01:56:40;;;;;;;15.80;11.02;;;14.40;71.10;;;;;;5038318;28;20025;-78
2024/01/29 01:59:11;;;;;;;16.52;11.45;;;14.40;71.10;;;;;;5020097;28;20071;-78
2024/01/29 02:01:49;;;;;;;16.77;11.75;;;14.40;71.20;;;;;;5020655;28;20029;-79
2024/01/29 02:04:15;;;;;;;16.55;11.18;;;14.30;71.00;;;;;;5037890;28;20387;-77
2024/01/29 02:06:42;;;;;;;14.82;11.25;;;14.30;71.00;;;;;;5035300;28;20282;-80
2024/01/29 02:09:12;;;;;;;20.30;11.13;;;14.30;71.10;;;;;;5020430;28;20051;-78
2024/01/29 02:11:37;;;;;;;15.45;10.95;;;14.30;71.10;;;;;;5021167;28;20025;-79
2024/01/29 02:14:03;;;;;;;18.75;11.52;;;14.30;71.10;;;;;;5024539;28;20040;-78
2024/01/29 02:16:29;;;;;;;18.00;11.50;;;14.30;71.20;;;;;;5042729;28;20025;-78
2024/01/29 02:18:56;;;;;;;19.67;11.45;;;14.30;71.20;;;;;;5014906;28;20037;-79
2024/01/29 02:21:22;;;;;;;14.65;10.68;;;14.30;71.20;;;;;;5040196;28;20021;-78
2024/01/29 02:23:48;;;;;;;16.27;10.05;;;14.30;71.30;;;;;;5039301;28;20482;-78
2024/01/29 02:26:14;;;;;;;15.15;12.35;;;14.30;71.30;;;;;;5025435;28;20156;-79
2024/01/29 02:28:41;;;;;;;16.25;11.02;;;14.30;71.30;;;;;;5039846;28;20310;-79
2024/01/29 02:31:11;;;;;;;18.15;12.07;;;14.30;71.30;;;;;;5040863;28;20163;-78
2024/01/29 02:33:39;;;;;;;14.43;10.20;;;14.30;71.30;;;;;;5010513;28;20037;-79
2024/01/29 02:36:05;;;;;;;17.33;10.48;;;14.30;71.30;;;;;;5041881;28;20206;-78
2024/01/29 02:38:32;;;;;;;15.27;10.85;;;14.30;71.30;;;;;;5041326;28;20032;-79
2024/01/29 02:40:58;;;;;;;17.05;11.40;;;14.30;71.40;;;;;;5039960;28;20040;-79
2024/01/29 02:43:26;;;;;;;18.55;10.93;;;14.30;71.40;;;;;;5044231;28;20040;-77
2024/01/29 02:45:56;;;;;;;13.20;9.90;;;14.30;71.40;;;;;;5016664;28;20065;-77
2024/01/29 02:48:22;;;;;;;18.90;9.95;;;14.30;71.40;;;;;;5029367;28;20050;-78
2024/01/29 02:50:48;;;;;;;15.90;9.52;;;14.30;71.40;;;;;;5047243;28;20334;-77
2024/01/29 02:53:14;;;;;;;15.35;11.38;;;14.30;71.40;;;;;;5005230;28;20141;-79
2024/01/29 02:55:41;;;;;;;16.15;11.05;;;14.20;71.30;;;;;;5027448;28;20040;-78
2024/01/29 02:58:07;;;;;;;14.95;10.90;;;14.30;71.40;;;;;;5025170;28;20033;-78
2024/01/29 03:00:33;;;;;;;24.40;11.98;;;14.20;71.30;;;;;;5046411;28;20388;-80
2024/01/29 03:02:59;;;;;;;15.82;10.50;;;14.20;71.30;;;;;;5047563;28;20029;-77
2024/01/29 03:05:26;;;;;;;18.77;12.27;;;14.20;71.30;;;;;;5046837;28;20033;-80
2024/01/29 03:07:53;;;;;;;18.90;10.85;;;14.10;71.20;;;;;;5028213;28;20044;-78
2024/01/29 03:10:18;;;;;;;16.33;9.75;;;14.10;71.30;;;;;;5029338;28;20052;-79
2024/01/29 03:12:45;;;;;;;17.67;10.63;;;14.10;71.30;;;;;;5047123;28;20480;-78
2024/01/29 03:15:11;;;;;;;15.95;11.70;;;14.10;71.40;;;;;;5043824;28;20032;-78
2024/01/29 03:17:37;;;;;;;19.67;11.15;;;14.10;71.40;;;;;;5029066;28;20075;-79
2024/01/29 03:20:04;;;;;;;16.30;10.35;;;14.00;71.20;;;;;;5027852;28;20108;-80
2024/01/29 03:22:30;;;;;;;16.52;10.73;;;14.00;71.30;;;;;;5043483;28;20029;-79
2024/01/29 03:24:56;;;;;;;15.48;9.82;;;14.00;71.30;;;;;;5029541;28;20571;-79
2024/01/29 03:27:23;;;;;;;16.88;10.63;;;14.00;71.40;;;;;;5044351;28;20124;-79
2024/01/29 03:29:49;;;;;;;13.88;9.70;;;13.90;71.20;;;;;;5044985;28;20104;-79
2024/01/29 03:32:16;;;;;;;12.82;9.85;;;13.90;71.20;;;;;;5046079;28;20295;-79
2024/01/29 03:34:45;;;;;;;15.48;9.15;;;13.90;71.30;;;;;;5027672;28;20061;-78
2024/01/29 03:37:12;;;;;;;14.15;9.43;;;13.90;71.30;;;;;;5024271;28;20025;-80
2024/01/29 03:39:38;;;;;;;12.98;9.80;;;13.90;71.40;;;;;;5028671;28;20781;-79
2024/01/29 03:42:05;;;;;;;12.52;8.98;;;13.80;71.20;;;;;;5045287;28;20048;-78
2024/01/29 03:44:31;;;;;;;14.27;11.82;;;13.80;71.20;;;;;;5012340;28;20132;-78
2024/01/29 03:46:57;;;;;;;15.40;9.70;;;13.80;71.30;;;;;;5040089;28;20132;-78
2024/01/29 03:49:23;;;;;;;17.92;10.00;;;13.80;71.40;;;;;;5046423;28;20526;-77
2024/01/29 03:51:49;;;;;;;14.00;9.82;;;13.80;71.90;;;;;;5045456;28;20021;-77
2024/01/29 03:54:15;;;;;;;12.95;9.80;;;13.70;71.30;;;;;;5024470;28;20271;-75
2024/01/29 03:56:43;;;;;;;16.75;10.60;;;13.70;71.30;;;;;;5027728;28;20125;-77
2024/01/29 03:59:11;;;;;;;15.40;10.32;;;13.70;71.40;;;;;;5045777;28;20037;-77
2024/01/29 04:01:38;;;;;;;11.43;8.43;;;13.70;71.40;;;;;;5046358;28;20047;-77
2024/01/29 04:04:09;;;;;;;17.48;9.48;;;13.70;71.40;;;;;;5028356;28;20370;-77
2024/01/29 04:06:40;;;;;;;14.65;9.63;;;13.60;71.30;;;;;;5043619;28;20382;-76
2024/01/29 04:09:10;;;;;;;18.75;10.30;;;13.60;71.30;;;;;;5044155;28;20010;-75
2024/01/29 04:11:36;;;;;;;14.68;10.93;;;13.60;71.30;;;;;;5044728;28;20021;-76
2024/01/29 04:14:03;;;;;;;17.10;9.63;;;13.70;71.60;;;;;;5042310;28;20037;-76
2024/01/29 04:16:33;;;;;;;11.98;9.75;;;13.60;71.40;;;;;;5043609;28;20029;-76
2024/01/29 04:18:59;;;;;;;13.57;9.25;;;13.60;71.50;;;;;;5033222;28;20038;-76
2024/01/29 04:21:25;;;;;;;17.95;9.60;;;13.60;71.50;;;;;;5046348;28;20040;-76
2024/01/29 04:23:52;;;;;;;13.73;9.52;;;13.60;71.60;;;;;;5026968;28;20021;-76
2024/01/29 04:26:18;;;;;;;13.23;9.07;;;13.60;71.60;;;;;;5043890;28;20052;-76
2024/01/29 04:28:46;;;;;;;11.32;8.63;;;13.60;71.70;;;;;;5027265;28;20393;-76
2024/01/29 04:31:13;;;;;;;15.75;9.23;;;13.60;71.70;;;;;;5019110;28;20495;-76
2024/01/29 04:33:42;;;;;;;17.88;8.70;;;13.60;71.70;;;;;;5043817;28;20040;-76
2024/01/29 04:36:12;;;;;;;12.38;8.70;;;13.60;71.80;;;;;;5045936;28;20025;-76
2024/01/29 04:38:40;;;;;;;12.30;7.97;;;13.60;71.80;;;;;;5013985;28;20060;-77
2024/01/29 04:41:06;;;;;;;11.88;7.97;;;13.60;71.80;;;;;;5043498;28;20108;-76
2024/01/29 04:43:33;;;;;;;13.93;9.38;;;13.60;71.80;;;;;;5019785;28;20094;-76
2024/01/29 04:45:59;;;;;;;10.85;7.72;;;13.50;71.70;;;;;;5028038;28;20040;-76
2024/01/29 04:48:28;;;;;;;13.10;8.02;;;13.60;71.90;;;;;;5044984;28;20561;-76
2024/01/29 04:50:54;;;;;;;12.75;8.57;;;13.60;71.90;;;;;;5027285;28;20066;-77
2024/01/29 04:53:21;;;;;;;14.02;8.93;;;13.50;71.70;;;;;;5042819;28;20049;-76
2024/01/29 04:55:48;;;;;;;16.08;8.68;;;13.50;71.80;;;;;;5041871;28;20659;-77
2024/01/29 04:58:15;;;;;;;12.50;8.68;;;13.60;72.00;;;;;;5009659;28;20017;-77
2024/01/29 05:00:41;;;;;;;13.60;9.15;;;13.60;72.00;;;;;;5044724;28;20020;-77
2024/01/29 05:03:07;;;;;;;11.88;8.77;;;13.60;72.00;;;;;;5027263;28;20104;-76
2024/01/29 05:05:33;;;;;;;15.63;9.82;;;13.60;72.10;;;;;;5044753;28;20123;-76
2024/01/29 05:07:58;;;;;;;12.27;9.00;;;13.60;72.10;;;;;;5024625;28;20052;-75
2024/01/29 05:10:25;;;;;;;12.82;7.97;;;13.60;72.10;;;;;;5026226;28;20047;-76
2024/01/29 05:12:51;;;;;;;12.95;8.18;;;13.60;72.10;;;;;;5044490;28;20492;-77
2024/01/29 05:15:17;;;;;;;12.10;8.27;;;13.50;71.90;;;;;;5026777;28;20025;-76
2024/01/29 05:17:44;;;;;;;13.90;8.57;;;13.50;72.00;;;;;;5044390;28;20032;-77
2024/01/29 05:20:11;;;;;;;16.77;8.70;;;13.50;72.00;;;;;;5007559;28;20127;-76
2024/01/29 05:22:37;;;;;;;12.55;8.35;;;13.50;72.10;;;;;;5043095;28;20573;-76
2024/01/29 05:25:06;;;;;;;12.25;8.35;;;13.50;72.10;;;;;;5043429;28;20036;-77
2024/01/29 05:27:32;;;;;;;16.23;8.75;;;13.50;72.10;;;;;;5044557;28;20446;-78
2024/01/29 05:30:02;;;;;;;15.35;9.05;;;13.50;72.10;;;;;;5039973;28;20021;-78
2024/01/29 05:32:28;;;;;;;13.23;8.52;;;13.50;72.20;;;;;;5043601;28;20039;-79
2024/01/29 05:34:54;;;;;;;12.63;7.57;;;13.50;72.20;;;;;;5045134;28;20025;-78
2024/01/29 05:37:21;;;;;;;17.90;10.25;;;13.50;72.20;;;;;;5043064;28;20106;-78
2024/01/29 05:39:47;;;;;;;14.93;8.73;;;13.50;72.30;;;;;;5043340;28;20036;-79
2024/01/29 05:42:14;;;;;;;12.38;8.35;;;13.50;72.30;;;;;;5044305;28;20378;-79
2024/01/29 05:44:40;;;;;;;14.05;9.05;;;13.50;72.30;;;;;;5041751;28;20033;-78
2024/01/29 05:47:06;;;;;;;14.75;8.68;;;13.50;72.30;;;;;;5044163;28;20412;-78
2024/01/29 05:49:32;;;;;;;15.43;8.52;;;13.50;72.40;;;;;;5038699;28;20561;-79
2024/01/29 05:51:58;;;;;;;16.55;9.45;;;13.50;72.50;;;;;;5021323;28;20414;-78
2024/01/29 05:54:28;;;;;;;16.60;8.75;;;13.50;72.50;;;;;;5036811;28;20041;-79
2024/01/29 05:56:54;;;;;;;19.23;9.07;;;13.60;72.70;;;;;;5038498;28;20055;-78
2024/01/29 05:59:20;;;;;;;13.30;9.23;;;13.50;72.50;;;;;;5018607;28;20595;-79
2024/01/29 06:01:46;;;;;;;12.10;8.15;;;13.60;72.70;;;;;;5037521;28;20255;-79
2024/01/29 06:04:12;;;;;;;16.48;8.80;;;13.60;72.80;;;;;;5024870;28;20349;-78
2024/01/29 06:06:41;;;;;;;16.80;8.63;;;13.60;72.80;;;;;;5034393;28;20193;-79
2024/01/29 06:09:09;;;;;;;19.75;9.10;;;13.50;72.70;;;;;;5006241;28;20033;-79
2024/01/29 06:11:36;;;;;;;13.63;8.90;;;13.60;72.80;;;;;;5041615;28;20028;-79
2024/01/29 06:14:02;;;;;;;15.52;8.48;;;13.60;72.80;;;;;;5024293;28;20043;-78
2024/01/29 06:16:28;;;;;;;13.68;8.43;;;13.60;72.80;;;;;;5036184;28;20056;-79
2024/01/29 06:18:55;;;;;;;16.27;9.13;;;13.60;72.80;;;;;;4998402;28;20497;-79
2024/01/29 06:21:21;;;;;;;11.73;9.63;;;13.60;72.90;;;;;;5040566;28;20667;-77
2024/01/29 06:23:48;;;;;;;14.02;8.70;;;13.60;72.90;;;;;;5034723;28;20113;-79
2024/01/29 06:26:14;;;;;;;13.25;8.23;;;13.60;72.90;;;;;;5021181;28;20282;-78
2024/01/29 06:28:44;;;;;;;13.20;8.18;;;13.60;72.90;;;;;;5044912;28;20131;-78
2024/01/29 06:31:10;;;;;;;13.30;8.60;;;13.60;73.00;;;;;;5041249;28;20040;-78
2024/01/29 06:33:38;;;;;;;15.77;8.02;;;13.60;73.00;;;;;;5022855;28;20049;-78
2024/01/29 06:36:06;;;;;;;13.82;9.35;;;13.60;73.00;;;;;;5007072;28;20037;-79
2024/01/29 06:38:32;;;;;;;18.73;9.45;;;13.60;73.00;;;;;;5023397;28;20040;-78
2024/01/29 06:40:58;;;;;;;17.88;8.80;;;13.60;73.00;;;;;;5038331;28;20037;-79
2024/01/29 06:43:26;;;;;;;13.95;8.85;;;13.60;73.10;;;;;;5018029;28;20139;-78
2024/01/29 06:45:52;;;;;;;14.68;8.38;;;13.60;73.10;;;;;;5047570;28;20033;-78
2024/01/29 06:48:19;;;;;;;17.42;10.10;;;13.60;73.10;;;;;;5045666;28;20057;-79
2024/01/29 06:50:47;;;;;;;11.35;7.03;;;13.60;73.10;;;;;;5041435;28;20525;-77
2024/01/29 06:53:14;;;;;;;11.05;6.63;;;13.60;73.10;;;;;;5039525;28;20037;-79
2024/01/29 06:55:42;;;;;;;10.63;5.88;;;13.70;73.60;;;;;;5038642;28;20037;-78
2024/01/29 06:58:08;;;;;;;9.80;6.25;;;13.70;73.60;;;;;;5023539;28;20043;-78
2024/01/29 07:00:34;;;;;;;11.02;6.70;;;13.80;73.80;;;;;;5044507;28;20112;-77
2024/01/29 07:03:01;;;;;;;8.18;6.03;;;13.80;73.80;;;;;;5023309;28;20088;-77
2024/01/29 07:05:27;;;;;;;13.20;7.55;;;13.90;74.10;;;;;;5039638;28;20030;-77
2024/01/29 07:07:54;;;;;;;17.85;7.85;;;14.00;74.30;;;;;;5038893;28;20638;-78
2024/01/29 07:10:21;;;;;;;9.50;6.30;;;14.00;74.30;;;;;;5006163;28;20396;-77
2024/01/29 07:12:47;;;;;;;11.75;6.55;;;14.10;74.50;;;;;;5038699;28;20637;-82
2024/01/29 07:15:18;;;;;;;34.75;11.50;;;14.10;74.40;;;;;;5038775;28;20418;-77
2024/01/29 07:17:45;;;;;;;31.33;10.35;;;14.10;74.50;;;;;;5021069;28;20650;-79
2024/01/29 07:20:12;;;;;;;23.30;10.73;;;14.10;74.60;;;;;;5039578;28;20044;-78
2024/01/29 07:22:39;;;;;;;21.67;9.52;;;14.20;74.80;;;;;;5016829;28;20163;-78
2024/01/29 07:25:05;;;;;;;19.15;9.65;;;14.20;74.80;;;;;;5038508;28;20029;-78
2024/01/29 07:27:37;;;;;;;28.15;10.00;;;14.20;74.80;;;;;;5036429;28;20069;-78
2024/01/29 07:30:04;;;;;;;19.45;10.25;;;14.20;74.80;;;;;;5015913;28;20392;-78
2024/01/29 07:32:31;;;;;;;21.73;10.07;;;14.20;74.80;;;;;;5039882;28;20065;-77
2024/01/29 07:35:00;;;;;;;19.85;9.20;;;14.20;74.80;;;;;;5034608;28;20452;-77
2024/01/29 07:37:28;;;;;;;21.35;9.13;;;14.20;74.80;;;;;;5014563;28;20028;-78
2024/01/29 07:39:54;;;;;;;23.13;10.07;;;14.20;74.70;;;;;;5014967;28;20044;-77
2024/01/29 07:42:20;;;;;;;17.85;9.02;;;14.20;74.70;;;;;;5036996;28;20028;-77
2024/01/29 07:44:48;;;;;;;16.73;10.18;;;14.20;74.60;;;;;;5034373;28;20029;-78
2024/01/29 07:47:14;;;;;;;16.55;9.35;;;14.20;74.60;;;;;;5015581;28;20186;-77
2024/01/29 07:49:41;;;;;;;16.90;9.77;;;14.20;74.60;;;;;;5040709;28;20180;-78
2024/01/29 07:52:08;;;;;;;16.77;9.95;;;14.20;74.50;;;;;;5009063;28;20033;-78
2024/01/29 07:54:35;;;;;;;19.58;10.50;;;14.20;74.50;;;;;;5018733;28;20051;-78
2024/01/29 07:57:03;;;;;;;19.20;9.38;;;14.20;74.50;;;;;;5051253;28;20457;-77
2024/01/29 07:59:30;;;;;;;13.35;9.43;;;14.20;74.50;;;;;;5018011;28;20029;-78
2024/01/29 08:01:55;;;;;;;19.38;9.77;;;14.10;74.30;;;;;;5026628;28;20578;-77
2024/01/29 08:04:22;;;;;;;15.55;9.82;;;14.10;74.20;;;;;;5014325;28;20033;-78
2024/01/29 08:06:48;;;;;;;15.27;9.88;;;14.10;74.30;;;;;;5028343;28;20025;-77
2024/01/29 08:09:14;;;;;;;19.52;9.98;;;14.10;74.20;;;;;;5041173;28;20392;-77
2024/01/29 08:11:41;;;;;;;16.27;9.60;;;14.10;74.20;;;;;;5014019;28;20485;-80
2024/01/29 08:14:14;;;;;;;19.50;9.65;;;14.10;74.20;;;;;;5039226;28;20041;-78
2024/01/29 08:16:41;;;;;;;17.65;10.43;;;14.10;74.20;;;;;;5014648;28;20029;-79
2024/01/29 08:19:07;;;;;;;11.82;9.50;;;14.10;74.20;;;;;;5034041;28;20073;-79
2024/01/29 08:21:37;;;;;;;15.20;9.63;;;14.10;74.10;;;;;;5014091;28;20385;-79
2024/01/29 08:24:04;;;;;;;14.73;9.70;;;14.10;74.10;;;;;;5016699;28;20552;-78
2024/01/29 08:26:30;;;;;;;16.33;9.77;;;14.10;74.10;;;;;;5034157;28;20021;-78
2024/01/29 08:28:58;;;;;;;13.63;9.23;;;14.10;74.10;;;;;;5034268;28;20606;-77
2024/01/29 08:31:24;;;;;;;14.07;10.02;;;14.00;73.90;;;;;;5030175;28;20022;-78
2024/01/29 08:33:51;;;;;;;17.13;10.32;;;14.10;74.00;;;;;;5035418;28;20037;-78
2024/01/29 08:36:20;;;;;;;14.90;10.35;;;14.10;74.00;;;;;;5035421;28;20384;-79
2024/01/29 08:38:47;;;;;;;15.35;9.15;;;14.10;74.00;;;;;;5036265;28;20773;-77
2024/01/29 08:41:14;;;;;;;15.10;11.30;;;14.10;73.90;;;;;;5033608;28;20120;-78
2024/01/29 08:43:40;;;;;;;16.67;11.13;;;14.10;73.90;;;;;;5018070;28;20037;-77
2024/01/29 08:46:10;;;;;;;15.73;10.65;;;14.10;73.90;;;;;;5012718;28;20052;-78
2024/01/29 08:48:38;;;;;;;15.45;10.50;;;14.10;73.80;;;;;;5024207;28;20527;-78
2024/01/29 08:51:04;;;;;;;12.98;10.02;;;14.00;73.60;;;;;;5037568;28;20040;-78
2024/01/29 08:53:33;;;;;;;16.00;10.18;;;14.10;73.80;;;;;;5011975;28;20076;-78
2024/01/29 08:56:00;;;;;;;13.77;10.95;;;14.10;73.70;;;;;;5007346;28;20048;-78
2024/01/29 08:58:27;;;;;;;16.08;11.15;;;14.00;73.50;;;;;;5038883;28;20388;-79
2024/01/29 09:00:57;;;;;;;17.08;11.07;;;14.00;73.50;;;;;;5016555;28;20029;-78
2024/01/29 09:03:27;;;;;;;14.27;10.20;;;14.10;73.70;;;;;;5008039;28;20033;-79
2024/01/29 09:05:54;;;;;;;13.98;10.00;;;14.00;73.50;;;;;;5013821;28;20025;-77
2024/01/29 09:08:26;;;;;;;21.30;11.18;;;14.10;73.70;;;;;;5032507;28;20448;-78
2024/01/29 09:10:53;;;;;;;12.38;10.05;;;14.10;73.70;;;;;;5013567;28;20110;-78
2024/01/29 09:13:20;;;;;;;12.80;10.30;;;14.00;73.50;;;;;;5027580;28;20285;-77
2024/01/29 09:15:47;;;;;;;13.75;10.35;;;14.10;73.60;;;;;;5006572;28;20029;-78
2024/01/29 09:18:16;;;;;;;12.57;9.02;;;14.10;73.50;;;;;;5029820;28;20063;-77
2024/01/29 09:20:45;;;;;;;17.75;9.98;;;14.10;73.50;;;;;;4997885;28;20280;-76
2024/01/29 09:23:12;;;;;;;14.32;10.85;;;14.10;73.50;;;;;;5034699;28;20035;-78
2024/01/29 09:25:39;;;;;;;12.23;9.82;;;14.10;73.50;;;;;;5039263;28;20025;-80
2024/01/29 09:28:07;;;;;;;11.70;9.18;;;14.10;73.40;;;;;;5039457;28;20045;-78
2024/01/29 09:30:34;;;;;;;11.82;9.07;;;14.10;73.40;;;;;;5022194;28;20124;-79
2024/01/29 09:33:01;;;;;;;12.43;9.25;;;14.10;73.30;;;;;;5038869;28;20124;-78
2024/01/29 09:35:28;;;;;;;12.55;9.70;;;14.20;73.50;;;;;;5040646;28;20527;-78
2024/01/29 09:37:54;;;;;;;12.30;9.85;;;14.10;73.30;;;;;;5044528;28;20051;-79
2024/01/29 09:40:21;;;;;;;14.32;9.00;;;14.20;73.40;;;;;;5039784;28;20041;-78
2024/01/29 09:42:54;;;;;;;12.15;10.05;;;14.20;73.40;;;;;;5003036;28;20913;-77
2024/01/29 09:45:28;;;;;;;16.95;10.52;;;14.20;73.30;;;;;;5038090;28;20029;-78
2024/01/29 09:47:58;;;;;;;15.48;9.98;;;14.20;73.20;;;;;;5023294;28;20056;-79
2024/01/29 09:50:28;;;;;;;11.77;9.55;;;14.30;73.30;;;;;;5009452;28;20025;-78
2024/01/29 09:52:56;;;;;;;10.75;9.30;;;14.30;73.30;;;;;;5008623;28;20130;-78
2024/01/29 09:55:25;;;;;;;13.02;9.32;;;14.30;73.30;;;;;;5024441;28;20030;-78
2024/01/29 09:57:54;;;;;;;11.73;8.85;;;14.30;73.20;;;;;;5032924;28;20480;-78
2024/01/29 10:00:24;;;;;;;10.68;8.73;;;14.40;73.30;;;;;;5027378;28;20033;-78
2024/01/29 10:02:53;;;;;;;13.48;10.95;;;14.40;73.30;;;;;;5028212;28;20150;-77
2024/01/29 10:05:20;;;;;;;13.13;8.90;;;14.40;73.20;;;;;;5036339;28;20041;-76
2024/01/29 10:07:49;;;;;;;12.48;8.40;;;14.50;73.30;;;;;;5012269;28;20040;-77
2024/01/29 10:10:16;;;;;;;11.95;8.50;;;14.50;73.30;;;;;;5031745;28;20116;-79
2024/01/29 10:12:42;;;;;;;12.85;8.38;;;14.50;73.20;;;;;;5033675;28;20041;-77
2024/01/29 10:15:12;;;;;;;15.80;9.93;;;14.50;73.10;;;;;;5019148;28;20040;-78
2024/01/29 10:17:38;;;;;;;13.20;9.38;;;14.50;73.10;;;;;;5025798;28;20523;-78
2024/01/29 10:20:20;;;;;;;12.05;8.73;;;14.60;73.20;;;;;;5038140;28;20144;-77
2024/01/29 10:22:58;;;;;;;11.02;8.32;;;14.60;73.10;;;;;;5035358;28;20036;-77
2024/01/29 10:25:25;;;;;;;14.95;9.07;;;14.60;73.10;;;;;;5003483;28;20167;-78
2024/01/29 10:27:52;;;;;;;10.70;8.40;;;14.70;73.20;;;;;;5024342;28;20033;-77
2024/01/29 10:30:18;;;;;;;11.00;8.52;;;14.80;73.20;;;;;;5008452;28;20638;-78
2024/01/29 10:32:45;;;;;;;11.23;8.13;;;14.80;73.10;;;;;;5002209;28;20679;-79
2024/01/29 10:35:12;;;;;;;9.30;8.27;;;14.80;73.00;;;;;;5039416;28;20115;-77
2024/01/29 10:37:40;;;;;;;9.23;7.85;;;14.90;73.00;;;;;;5040101;28;20086;-77
2024/01/29 10:40:13;;;;;;;10.30;8.30;;;14.90;72.90;;;;;;5041541;28;20047;-78
2024/01/29 10:42:41;;;;;;;9.40;8.20;;;15.00;72.90;;;;;;5042204;28;20036;-78
2024/01/29 10:45:11;;;;;;;10.57;8.40;;;15.10;73.00;;;;;;5039637;28;20032;-79
2024/01/29 10:47:45;;;;;;;11.25;8.20;;;15.20;73.00;;;;;;5009904;28;20056;-78
2024/01/29 10:50:16;;;;;;;9.98;7.65;;;15.20;72.80;;;;;;5017766;28;20298;-78
2024/01/29 10:52:45;;;;;;;8.35;7.55;;;15.30;72.80;;;;;;5029480;28;20054;-78
2024/01/29 10:55:12;;;;;;;12.02;7.97;;;15.40;72.80;;;;;;5034003;28;20111;-79
2024/01/29 10:57:41;;;;;;;8.77;7.50;;;15.50;72.80;;;;;;5032365;28;20071;-78
2024/01/29 11:00:10;;;;;;;7.57;6.88;;;15.50;72.60;;;;;;5029784;28;20073;-78
2024/01/29 11:02:37;;;;;;;10.57;8.40;;;15.60;72.60;;;;;;5020660;28;20060;-79
2024/01/29 11:05:09;;;;;;;8.25;7.07;;;15.70;72.60;;;;;;5042020;28;20036;-77
2024/01/29 11:07:37;;;;;;;7.85;6.78;;;15.70;72.40;;;;;;5034417;28;20305;-77
2024/01/29 11:10:34;;;;;;;8.38;6.38;;;15.80;72.40;;;;;;5021735;28;20071;-77
2024/01/29 11:13:03;;;;;;;7.25;5.88;;;15.80;72.30;;;;;;5034275;28;20068;-76
2024/01/29 11:15:31;;;;;;;8.27;7.10;;;15.90;72.40;;;;;;5039769;28;20025;-75
2024/01/29 11:17:58;;;;;;;8.90;6.78;;;15.90;72.30;;;;;;5007792;28;20132;-76
2024/01/29 11:20:24;;;;;;;8.13;6.15;;;16.00;72.30;;;;;;5020162;28;20029;-76
2024/01/29 11:22:52;;;;;;;7.18;6.07;;;16.00;72.30;;;;;;5023843;28;20066;-77
2024/01/29 11:25:19;;;;;;;7.50;5.32;;;16.00;72.20;;;;;;5022461;28;20033;-76
2024/01/29 11:27:48;;;;;;;6.53;5.90;;;16.00;72.10;;;;;;5042214;28;20502;-77
2024/01/29 11:30:20;;;;;;;6.38;5.40;;;16.00;72.10;;;;;;5023342;28;20047;-76
2024/01/29 11:32:51;;;;;;;7.80;5.95;;;16.10;72.10;;;;;;5002320;28;20037;-77
2024/01/29 11:35:18;;;;;;;7.60;5.70;;;16.10;72.00;;;;;;5018547;28;20421;-78
2024/01/29 11:37:49;;;;;;;4.85;4.43;;;16.20;72.10;;;;;;5034878;28;20360;-79
2024/01/29 11:40:38;;;;;;;8.15;3.97;;;16.30;72.10;;;;;;5022032;28;20116;-78
2024/01/29 11:43:21;;;;;;;4.32;3.92;;;16.40;72.10;;;;;;5015430;28;20388;-78
2024/01/29 11:45:53;;;;;;;5.43;4.53;;;16.50;72.10;;;;;;5012174;28;20197;-79
2024/01/29 11:48:21;;;;;;;8.98;4.47;;;16.70;72.10;;;;;;5017882;28;20091;-78
2024/01/29 11:50:53;;;;;;;7.75;4.28;;;16.80;71.90;;;;;;5012604;28;20037;-79
2024/01/29 11:53:23;;;;;;;5.55;3.83;;;17.00;71.90;;;;;;5044479;28;20044;-79
2024/01/29 11:55:49;;;;;;;4.35;3.88;;;17.10;71.70;;;;;;5014912;28;20033;-77
2024/01/29 11:58:18;;;;;;;6.47;3.45;;;17.20;71.50;;;;;;5021503;28;20037;-79
2024/01/29 12:00:46;;;;;;;4.00;3.60;;;17.30;71.30;;;;;;5029380;28;20069;-79
2024/01/29 12:03:14;;;;;;;4.50;4.03;;;17.40;71.30;;;;;;5039372;28;20039;-78
2024/01/29 12:05:41;;;;;;;4.25;3.30;;;17.40;71.00;;;;;;5036841;28;20113;-76
2024/01/29 12:08:17;;;;;;;6.18;4.32;;;17.50;71.00;;;;;;5023221;28;20445;-77
2024/01/29 12:10:45;;;;;;;3.88;3.50;;;17.60;70.80;;;;;;5041537;28;20036;-76
2024/01/29 12:13:13;;;;;;;5.22;3.90;;;17.60;70.70;;;;;;5040114;28;20503;-79
2024/01/29 12:15:39;;;;;;;6.18;4.32;;;17.70;70.70;;;;;;5012041;28;20452;-78
2024/01/29 12:18:09;;;;;;;5.20;4.10;;;17.90;70.70;;;;;;5037083;28;20075;-77
2024/01/29 12:20:38;;;;;;;5.00;3.80;;;18.00;70.50;;;;;;5011670;28;20034;-78
2024/01/29 12:23:05;;;;;;;8.13;4.70;;;18.20;70.30;;;;;;5019064;28;20110;-78
2024/01/29 12:25:33;;;;;;;8.40;3.78;;;18.40;70.10;;;;;;5034772;28;20028;-79
2024/01/29 12:28:03;;;;;;;7.30;3.58;;;18.50;69.80;;;;;;5042577;28;20178;-77
2024/01/29 12:30:30;;;;;;;8.50;4.63;;;18.60;69.60;;;;;;5028131;28;20022;-79
2024/01/29 12:32:57;;;;;;;5.60;3.63;;;18.70;69.60;;;;;;5015249;28;20045;-78
2024/01/29 12:35:26;;;;;;;4.25;3.63;;;18.80;69.40;;;;;;5035618;28;20170;-77
2024/01/29 12:37:52;;;;;;;3.88;3.58;;;18.90;69.10;;;;;;5020977;28;20176;-78